createdAt,value
2017-10-30T00:01:02.626Z,26.80
2017-10-30T00:03:33.247Z,26.70
2017-10-30T00:06:03.663Z,26.80
2017-10-30T00:08:34.091Z,26.90
2017-10-30T00:11:04.545Z,26.90
2017-10-30T00:13:34.957Z,27.00
2017-10-30T00:16:05.550Z,27.00
2017-10-30T00:18:36.764Z,27.10
2017-10-30T00:21:07.223Z,27.20
2017-10-30T00:23:37.616Z,27.20
2017-10-30T00:26:08.246Z,27.30
2017-10-30T00:28:38.967Z,27.30
2017-10-30T00:31:09.423Z,27.40
2017-10-30T00:33:39.868Z,27.50
2017-10-30T00:36:11.183Z,27.60
2017-10-30T00:38:41.955Z,27.60
2017-10-30T00:41:13.210Z,27.70
2017-10-30T00:43:43.941Z,27.70
2017-10-30T00:46:14.379Z,27.80
2017-10-30T00:48:44.880Z,27.90
2017-10-30T00:51:15.377Z,27.90
2017-10-30T00:53:45.822Z,28.00
2017-10-30T00:56:16.333Z,28.00
2017-10-30T00:58:46.737Z,28.10
2017-10-30T01:01:17.224Z,28.20
2017-10-30T01:03:47.671Z,28.20
2017-10-30T01:06:18.216Z,28.30
2017-10-30T01:08:49.069Z,28.40
2017-10-30T01:11:19.493Z,28.50
2017-10-30T01:13:50.441Z,28.40
2017-10-30T01:16:20.885Z,28.50
2017-10-30T01:18:52.367Z,28.50
2017-10-30T01:21:22.986Z,28.50
2017-10-30T01:23:54.254Z,28.50
2017-10-30T01:26:25.222Z,28.50
2017-10-30T01:28:55.723Z,28.50
2017-10-30T01:31:26.224Z,28.50
2017-10-30T01:33:57.469Z,28.50
2017-10-30T01:36:29.561Z,28.60
2017-10-30T01:39:00.269Z,28.60
2017-10-30T01:41:31.522Z,28.70
2017-10-30T01:44:02.412Z,28.70
2017-10-30T01:46:32.904Z,28.80
2017-10-30T01:49:03.353Z,28.80
2017-10-30T01:51:33.794Z,28.90
2017-10-30T01:54:04.302Z,28.90
2017-10-30T01:56:36.138Z,28.90
2017-10-30T01:59:06.733Z,28.90
2017-10-30T02:01:37.384Z,28.90
2017-10-30T02:04:08.771Z,29.00
2017-10-30T02:06:39.259Z,29.10
2017-10-30T02:09:10.749Z,29.20
2017-10-30T02:11:41.225Z,29.20
2017-10-30T02:14:12.055Z,29.20
2017-10-30T02:16:42.538Z,29.20
2017-10-30T02:19:13.206Z,29.20
2017-10-30T02:21:43.701Z,29.30
2017-10-30T02:24:14.122Z,29.40
2017-10-30T02:26:45.008Z,29.50
2017-10-30T02:29:15.434Z,29.50
2017-10-30T02:31:45.930Z,29.60
2017-10-30T02:34:16.318Z,29.60
2017-10-30T02:36:47.553Z,29.80
2017-10-30T02:39:18.761Z,29.80
2017-10-30T02:41:49.294Z,29.90
2017-10-30T02:44:19.970Z,29.90
2017-10-30T02:46:51.205Z,29.90
2017-10-30T02:49:23.273Z,29.80
2017-10-30T02:51:54.488Z,29.80
2017-10-30T02:54:24.976Z,29.80
2017-10-30T02:56:55.959Z,29.90
2017-10-30T02:59:26.342Z,30.00
2017-10-30T03:01:56.854Z,30.00
2017-10-30T03:04:27.376Z,30.10
2017-10-30T03:06:58.611Z,30.20
2017-10-30T03:09:29.844Z,30.30
2017-10-30T03:12:00.243Z,30.30
2017-10-30T03:14:31.165Z,30.40
2017-10-30T03:17:01.667Z,30.50
2017-10-30T03:19:32.453Z,30.60
2017-10-30T03:22:02.915Z,30.60
2017-10-30T03:24:34.139Z,30.70
2017-10-30T03:27:05.108Z,30.60
2017-10-30T03:29:36.297Z,30.70
2017-10-30T03:32:07.166Z,30.70
2017-10-30T03:34:37.690Z,30.70
2017-10-30T03:37:08.180Z,30.80
2017-10-30T03:39:38.582Z,30.90
2017-10-30T03:42:09.060Z,30.90
2017-10-30T03:44:40.656Z,31.10
2017-10-30T03:47:11.127Z,31.10
2017-10-30T03:49:41.782Z,31.10
2017-10-30T03:52:13.456Z,31.20
2017-10-30T03:54:44.664Z,31.30
2017-10-30T03:57:15.574Z,31.30
2017-10-30T03:59:46.026Z,31.40
2017-10-30T04:02:16.961Z,31.40
2017-10-30T04:04:47.342Z,31.40
2017-10-30T04:07:18.553Z,31.50
2017-10-30T04:09:48.968Z,31.50
2017-10-30T04:12:19.431Z,31.60
2017-10-30T04:14:51.014Z,31.60
2017-10-30T04:17:21.465Z,31.60
2017-10-30T04:19:51.900Z,31.70
2017-10-30T04:22:22.328Z,31.70
2017-10-30T04:24:52.804Z,31.70
2017-10-30T04:27:23.274Z,31.70
2017-10-30T04:29:53.789Z,31.70
2017-10-30T04:32:24.526Z,31.70
2017-10-30T04:34:54.994Z,31.70
2017-10-30T04:37:25.482Z,31.70
2017-10-30T04:39:55.940Z,31.70
2017-10-30T04:42:26.433Z,31.60
2017-10-30T04:44:56.891Z,31.60
2017-10-30T04:47:27.297Z,31.60
2017-10-30T04:49:57.710Z,31.60
2017-10-30T04:52:28.261Z,31.60
2017-10-30T04:54:58.745Z,31.50
2017-10-30T04:57:29.217Z,31.40
2017-10-30T04:59:59.642Z,31.40
2017-10-30T05:02:30.526Z,31.40
2017-10-30T05:05:01.724Z,31.40
2017-10-30T05:07:32.207Z,31.50
2017-10-30T05:10:02.648Z,31.40
2017-10-30T05:12:37.955Z,31.40
2017-10-30T05:15:09.665Z,31.40
2017-10-30T05:17:40.144Z,31.40
2017-10-30T05:20:11.369Z,31.30
2017-10-30T05:22:41.981Z,31.30
2017-10-30T05:25:12.479Z,31.30
2017-10-30T05:27:42.975Z,31.30
2017-10-30T05:30:14.220Z,31.30
2017-10-30T05:32:45.979Z,31.30
2017-10-30T05:35:17.146Z,31.40
2017-10-30T05:37:47.590Z,31.30
2017-10-30T05:40:17.984Z,31.40
2017-10-30T05:42:49.205Z,31.40
2017-10-30T05:45:20.015Z,31.40
2017-10-30T05:47:50.514Z,31.40
2017-10-30T05:50:21.163Z,31.40
2017-10-30T05:52:51.640Z,31.40
2017-10-30T05:55:22.833Z,31.50
2017-10-30T05:57:53.320Z,31.50
2017-10-30T06:00:24.567Z,31.60
2017-10-30T06:02:56.080Z,31.60
2017-10-30T06:05:26.500Z,31.60
2017-10-30T06:07:56.995Z,31.60
2017-10-30T06:10:27.508Z,31.70
2017-10-30T06:12:59.020Z,31.90
2017-10-30T06:15:29.810Z,31.90
2017-10-30T06:18:00.260Z,31.90
2017-10-30T06:20:31.115Z,32.00
2017-10-30T06:23:01.576Z,32.10
2017-10-30T06:25:32.757Z,32.30
2017-10-30T06:28:03.234Z,32.30
2017-10-30T06:30:33.764Z,32.40
2017-10-30T06:33:04.694Z,32.40
2017-10-30T06:35:35.183Z,32.40
2017-10-30T06:38:05.677Z,32.40
2017-10-30T06:40:36.894Z,32.60
2017-10-30T06:43:07.376Z,32.60
2017-10-30T06:45:38.118Z,32.70
2017-10-30T06:48:08.549Z,32.90
2017-10-30T06:50:39.172Z,33.00
2017-10-30T06:53:09.671Z,33.00
2017-10-30T06:55:40.910Z,33.10
2017-10-30T06:58:12.176Z,33.10
2017-10-30T07:00:42.585Z,33.10
2017-10-30T07:03:14.165Z,33.00
2017-10-30T07:05:44.629Z,33.00
2017-10-30T07:08:15.128Z,32.90
2017-10-30T07:10:45.614Z,32.70
2017-10-30T07:13:16.822Z,32.40
2017-10-30T07:15:48.672Z,32.40
2017-10-30T07:18:19.190Z,32.40
2017-10-30T07:20:50.576Z,32.30
2017-10-30T07:23:21.096Z,32.30
2017-10-30T07:25:51.501Z,32.30
2017-10-30T07:28:22.089Z,32.70
2017-10-30T07:30:53.331Z,32.20
2017-10-30T07:33:25.093Z,32.20
2017-10-30T07:35:56.341Z,32.20
2017-10-30T07:38:27.604Z,32.10
2017-10-30T07:40:58.093Z,32.00
2017-10-30T07:43:28.540Z,32.00
2017-10-30T07:46:00.155Z,31.80
2017-10-30T07:48:31.274Z,31.80
2017-10-30T07:51:02.934Z,31.70
2017-10-30T07:53:33.392Z,31.70
2017-10-30T07:56:03.904Z,31.50
2017-10-30T07:58:34.388Z,31.40
2017-10-30T08:01:04.808Z,31.30
2017-10-30T08:03:36.526Z,31.10
2017-10-30T08:06:06.985Z,31.10
2017-10-30T08:08:38.206Z,31.00
2017-10-30T08:11:08.757Z,31.00
2017-10-30T08:13:40.037Z,30.80
2017-10-30T08:16:10.666Z,30.70
2017-10-30T08:18:41.097Z,30.60
2017-10-30T08:21:14.866Z,30.40
2017-10-30T08:23:46.042Z,30.10
2017-10-30T08:26:16.549Z,30.10
2017-10-30T08:28:47.769Z,29.90
2017-10-30T08:31:18.316Z,29.80
2017-10-30T08:33:50.444Z,29.60
2017-10-30T08:36:20.946Z,29.50
2017-10-30T08:38:51.409Z,29.40
2017-10-30T08:41:21.868Z,29.30
2017-10-30T08:43:53.125Z,29.00
2017-10-30T08:46:24.013Z,29.00
2017-10-30T08:48:54.514Z,29.00
2017-10-30T08:51:25.275Z,28.90
2017-10-30T08:53:55.724Z,29.00
2017-10-30T08:56:27.061Z,29.00
2017-10-30T08:58:57.564Z,29.10
2017-10-30T09:01:28.039Z,29.10
2017-10-30T09:03:59.653Z,29.10
2017-10-30T09:06:30.119Z,29.10
2017-10-30T09:09:01.478Z,29.00
2017-10-30T09:11:32.898Z,28.90
2017-10-30T09:14:03.377Z,28.90
2017-10-30T09:16:33.857Z,28.80
2017-10-30T09:19:04.388Z,28.80
2017-10-30T09:21:35.352Z,28.70
2017-10-30T09:24:06.820Z,28.70
2017-10-30T09:26:37.322Z,28.70
2017-10-30T09:29:08.595Z,28.70
2017-10-30T09:31:39.011Z,28.70
2017-10-30T09:34:09.666Z,28.80
2017-10-30T09:36:41.121Z,28.80
2017-10-30T09:39:12.901Z,28.70
2017-10-30T09:41:43.362Z,28.70
2017-10-30T09:44:14.608Z,28.60
2017-10-30T09:46:45.816Z,28.50
2017-10-30T09:49:16.308Z,28.50
2017-10-30T09:51:47.221Z,28.40
2017-10-30T09:54:18.444Z,28.30
2017-10-30T09:56:48.925Z,28.30
2017-10-30T09:59:19.398Z,28.30
2017-10-30T10:01:49.854Z,28.20
2017-10-30T10:04:21.095Z,27.80
2017-10-30T10:06:52.261Z,27.50
2017-10-30T10:09:23.161Z,27.40
2017-10-30T10:11:53.603Z,27.30
2017-10-30T10:14:24.896Z,27.10
2017-10-30T10:16:55.340Z,27.10
2017-10-30T10:19:25.834Z,26.90
2017-10-30T10:21:56.642Z,26.90
2017-10-30T10:24:27.990Z,26.80
2017-10-30T10:26:59.233Z,26.70
2017-10-30T10:29:30.487Z,26.60
2017-10-30T10:32:01.020Z,26.60
2017-10-30T10:34:32.545Z,26.60
2017-10-30T10:37:03.537Z,26.60
2017-10-30T10:39:34.541Z,26.60
2017-10-30T10:42:05.859Z,26.70
2017-10-30T10:44:36.354Z,26.70
2017-10-30T10:47:06.824Z,26.80
2017-10-30T10:49:37.379Z,26.90
2017-10-30T10:52:09.236Z,26.90
2017-10-30T10:54:40.487Z,26.90
2017-10-30T10:57:11.682Z,27.00
2017-10-30T10:59:42.081Z,27.00
2017-10-30T11:02:12.518Z,27.00
2017-10-30T11:04:43.181Z,27.00
2017-10-30T11:07:13.677Z,27.00
2017-10-30T11:09:44.629Z,27.00
2017-10-30T11:12:15.067Z,27.00
2017-10-30T11:14:45.535Z,26.90
2017-10-30T11:17:16.815Z,26.80
2017-10-30T11:19:47.315Z,26.80
2017-10-30T11:22:18.138Z,26.70
2017-10-30T11:24:49.457Z,26.60
2017-10-30T11:27:19.914Z,26.70
2017-10-30T11:29:51.178Z,26.70
2017-10-30T11:32:21.636Z,26.70
2017-10-30T11:34:52.587Z,26.70
2017-10-30T11:37:23.049Z,26.70
2017-10-30T11:39:54.781Z,26.60
2017-10-30T11:42:25.291Z,26.60
2017-10-30T11:44:55.791Z,26.60
2017-10-30T11:47:26.253Z,26.60
2017-10-30T11:49:56.740Z,26.60
2017-10-30T11:52:27.534Z,26.70
2017-10-30T11:54:57.998Z,26.70
2017-10-30T11:57:28.440Z,26.70
2017-10-30T11:59:58.865Z,26.80
2017-10-30T12:02:29.306Z,26.80
2017-10-30T12:04:59.812Z,26.80
2017-10-30T12:07:30.242Z,26.80
2017-10-30T12:10:01.131Z,26.70
2017-10-30T12:12:31.589Z,26.70
2017-10-30T12:15:02.799Z,26.70
2017-10-30T12:17:33.284Z,26.70
2017-10-30T12:20:03.782Z,26.60
2017-10-30T12:22:35.396Z,26.50
2017-10-30T12:25:06.580Z,26.50
2017-10-30T12:27:38.303Z,26.50
2017-10-30T12:30:08.796Z,26.50
2017-10-30T12:32:39.203Z,26.50
2017-10-30T12:35:10.421Z,26.50
2017-10-30T12:37:40.807Z,26.50
2017-10-30T12:40:11.761Z,26.50
2017-10-30T12:42:43.035Z,26.40
2017-10-30T12:45:13.467Z,26.40
2017-10-30T12:47:43.921Z,26.40
2017-10-30T12:50:14.445Z,26.40
2017-10-30T12:52:46.303Z,26.40
2017-10-30T12:55:17.517Z,26.40
2017-10-30T12:57:48.346Z,26.40
2017-10-30T13:00:19.932Z,26.40
2017-10-30T13:02:51.129Z,26.30
2017-10-30T13:05:21.612Z,26.30
2017-10-30T13:07:52.856Z,26.30
2017-10-30T13:10:24.603Z,26.30
2017-10-30T13:12:55.749Z,26.30
2017-10-30T13:15:26.989Z,26.30
2017-10-30T13:17:58.243Z,26.30
2017-10-30T13:20:29.587Z,26.30
2017-10-30T13:23:01.113Z,26.30
2017-10-30T13:25:31.605Z,26.30
2017-10-30T13:28:02.481Z,26.30
2017-10-30T13:30:32.990Z,26.30
2017-10-30T13:33:03.415Z,26.30
2017-10-30T13:35:33.865Z,26.30
2017-10-30T13:38:04.343Z,26.30
2017-10-30T13:40:35.212Z,26.30
2017-10-30T13:43:05.681Z,26.30
2017-10-30T13:45:36.924Z,26.30
2017-10-30T13:48:08.129Z,26.20
2017-10-30T13:50:38.628Z,26.20
2017-10-30T13:53:09.244Z,26.20
2017-10-30T13:55:39.768Z,26.20
2017-10-30T13:58:10.521Z,26.20
2017-10-30T14:00:41.261Z,26.10
2017-10-30T14:03:11.654Z,26.40
2017-10-30T14:05:42.937Z,26.10
2017-10-30T14:08:13.397Z,26.10
2017-10-30T14:10:44.232Z,26.10
2017-10-30T14:13:14.739Z,26.10
2017-10-30T14:15:45.298Z,26.10
2017-10-30T14:18:15.679Z,26.20
2017-10-30T14:20:46.086Z,26.20
2017-10-30T14:23:17.789Z,26.20
2017-10-30T14:25:48.325Z,26.20
2017-10-30T14:28:19.146Z,26.20
2017-10-30T14:30:49.686Z,26.30
2017-10-30T14:33:20.164Z,26.30
2017-10-30T14:35:50.659Z,26.30
2017-10-30T14:38:21.209Z,26.30
2017-10-30T14:40:52.845Z,26.30
2017-10-30T14:43:23.214Z,26.30
2017-10-30T14:45:53.743Z,26.30
2017-10-30T14:48:24.170Z,26.30
2017-10-30T14:50:54.684Z,26.30
2017-10-30T14:53:25.930Z,26.40
2017-10-30T14:55:56.396Z,26.40
2017-10-30T14:58:27.334Z,26.40
2017-10-30T15:00:57.786Z,26.40
2017-10-30T15:03:28.272Z,26.40
2017-10-30T15:05:58.832Z,26.30
2017-10-30T15:08:29.371Z,26.30
2017-10-30T15:11:00.130Z,26.30
2017-10-30T15:13:31.393Z,26.20
2017-10-30T15:16:02.074Z,26.20
2017-10-30T15:18:32.494Z,26.20
2017-10-30T15:21:03.794Z,26.20
2017-10-30T15:23:34.986Z,26.20
2017-10-30T15:26:05.516Z,26.20
2017-10-30T15:28:36.279Z,26.20
2017-10-30T15:31:06.833Z,26.20
2017-10-30T15:33:38.062Z,26.20
2017-10-30T15:36:10.472Z,26.20
2017-10-30T15:38:40.962Z,26.20
2017-10-30T15:41:12.786Z,26.20
2017-10-30T15:43:43.261Z,26.20
2017-10-30T15:46:14.908Z,26.20
2017-10-30T15:48:46.116Z,26.10
2017-10-30T15:51:16.560Z,26.20
2017-10-30T15:53:47.002Z,26.10
2017-10-30T15:56:18.267Z,26.10
2017-10-30T15:58:50.468Z,26.00
2017-10-30T16:01:21.048Z,26.00
2017-10-30T16:03:52.325Z,26.00
2017-10-30T16:06:22.771Z,26.00
2017-10-30T16:08:53.187Z,25.90
2017-10-30T16:11:23.962Z,25.90
2017-10-30T16:13:54.449Z,25.90
2017-10-30T16:16:25.227Z,25.90
2017-10-30T16:18:55.691Z,25.90
2017-10-30T16:21:26.182Z,25.90
2017-10-30T16:23:56.598Z,25.90
2017-10-30T16:26:27.062Z,25.90
2017-10-30T16:28:58.501Z,25.90
2017-10-30T16:31:29.821Z,25.90
2017-10-30T16:34:01.401Z,25.90
2017-10-30T16:36:31.822Z,25.90
2017-10-30T16:39:02.231Z,25.90
2017-10-30T16:41:33.892Z,26.00
2017-10-30T16:44:05.164Z,26.00
2017-10-30T16:46:36.384Z,25.90
2017-10-30T16:49:06.865Z,26.00
2017-10-30T16:51:37.416Z,26.00
2017-10-30T16:54:07.797Z,26.00
2017-10-30T16:56:38.999Z,26.00
2017-10-30T16:59:09.823Z,26.00
2017-10-30T17:01:40.312Z,25.90
2017-10-30T17:04:11.558Z,25.90
2017-10-30T17:06:41.987Z,25.90
2017-10-30T17:09:12.565Z,25.80
2017-10-30T17:11:43.059Z,25.80
2017-10-30T17:14:13.553Z,25.80
2017-10-30T17:16:45.176Z,25.70
2017-10-30T17:19:15.634Z,25.70
2017-10-30T17:21:46.834Z,25.80
2017-10-30T17:24:17.388Z,25.80
2017-10-30T17:26:47.825Z,25.80
2017-10-30T17:29:18.755Z,25.80
2017-10-30T17:31:49.228Z,25.80
2017-10-30T17:34:19.684Z,25.80
2017-10-30T17:36:50.287Z,25.80
2017-10-30T17:39:20.722Z,25.80
2017-10-30T17:41:51.203Z,25.80
2017-10-30T17:44:21.677Z,25.80
2017-10-30T17:46:52.443Z,25.80
2017-10-30T17:49:22.904Z,25.80
2017-10-30T17:54:28.697Z,25.70
2017-10-30T17:56:59.180Z,25.70
2017-10-30T17:59:30.023Z,25.70
2017-10-30T18:02:00.530Z,25.70
2017-10-30T18:04:31.280Z,25.70
2017-10-30T18:07:01.755Z,25.80
2017-10-30T18:09:32.241Z,25.80
2017-10-30T18:12:02.642Z,25.80
2017-10-30T18:14:33.097Z,25.80
2017-10-30T18:17:03.927Z,25.80
2017-10-30T18:19:34.441Z,25.80
2017-10-30T18:22:10.010Z,25.70
2017-10-30T18:24:40.382Z,25.70
2017-10-30T18:27:10.889Z,25.60
2017-10-30T18:29:42.615Z,25.70
2017-10-30T18:32:13.176Z,25.70
2017-10-30T18:34:44.650Z,25.80
2017-10-30T18:37:15.137Z,25.80
2017-10-30T18:39:45.648Z,25.80
2017-10-30T18:42:16.884Z,25.80
2017-10-30T18:44:47.328Z,25.80
2017-10-30T18:47:17.893Z,25.80
2017-10-30T18:49:48.363Z,25.80
2017-10-30T18:52:18.760Z,25.80
2017-10-30T18:54:49.213Z,25.70
2017-10-30T18:57:19.710Z,25.70
2017-10-30T18:59:50.616Z,25.70
2017-10-30T19:02:21.794Z,25.80
2017-10-30T19:04:52.559Z,25.80
2017-10-30T19:07:23.054Z,25.80
2017-10-30T19:09:53.452Z,25.80
2017-10-30T19:12:24.726Z,25.80
2017-10-30T19:14:55.187Z,25.80
2017-10-30T19:17:26.914Z,25.80
2017-10-30T19:19:57.464Z,25.80
2017-10-30T19:22:27.995Z,25.80
2017-10-30T19:24:58.468Z,25.80
2017-10-30T19:27:29.711Z,25.90
2017-10-30T19:30:01.564Z,25.90
2017-10-30T19:32:32.060Z,25.90
2017-10-30T19:35:02.826Z,25.90
2017-10-30T19:37:33.266Z,25.90
2017-10-30T19:40:04.493Z,25.90
2017-10-30T19:42:35.036Z,25.90
2017-10-30T19:45:06.138Z,25.90
2017-10-30T19:47:37.120Z,25.90
2017-10-30T19:50:08.336Z,25.90
2017-10-30T19:52:38.817Z,25.90
2017-10-30T19:55:09.256Z,25.80
2017-10-30T19:57:39.750Z,25.80
2017-10-30T20:00:11.363Z,25.80
2017-10-30T20:02:41.839Z,25.80
2017-10-30T20:05:18.477Z,25.80
2017-10-30T20:07:53.962Z,25.80
2017-10-30T20:10:29.518Z,25.70
2017-10-30T20:13:00.023Z,25.70
2017-10-30T20:15:31.307Z,25.70
2017-10-30T20:18:02.060Z,25.70
2017-10-30T20:20:32.537Z,25.70
2017-10-30T20:23:03.785Z,25.80
2017-10-30T20:25:34.994Z,25.80
2017-10-30T20:28:05.480Z,25.80
2017-10-30T20:30:36.333Z,25.80
2017-10-30T20:33:07.740Z,25.80
2017-10-30T20:35:39.252Z,25.70
2017-10-30T20:38:09.804Z,25.70
2017-10-30T20:40:40.179Z,25.70
2017-10-30T20:43:10.618Z,25.70
2017-10-30T20:45:40.994Z,25.70
2017-10-30T20:48:12.779Z,25.70
2017-10-30T20:50:43.240Z,25.70
2017-10-30T20:53:13.654Z,25.70
2017-10-30T20:55:44.145Z,25.70
2017-10-30T20:58:15.401Z,25.70
2017-10-30T21:00:46.173Z,25.60
2017-10-30T21:03:16.652Z,25.60
2017-10-30T21:05:50.218Z,25.60
2017-10-30T21:08:22.771Z,25.60
2017-10-30T21:10:53.267Z,25.60
2017-10-30T21:13:23.713Z,25.60
2017-10-30T21:15:54.095Z,25.60
2017-10-30T21:18:24.809Z,25.60
2017-10-30T21:20:55.297Z,25.50
2017-10-30T21:23:25.754Z,25.60
2017-10-30T21:25:56.227Z,25.50
2017-10-30T21:28:27.430Z,25.50
2017-10-30T21:30:58.242Z,25.50
2017-10-30T21:33:28.640Z,25.50
2017-10-30T21:35:59.369Z,25.40
2017-10-30T21:38:30.547Z,25.40
2017-10-30T21:41:00.891Z,25.40
2017-10-30T21:43:31.328Z,25.40
2017-10-30T21:46:01.756Z,25.40
2017-10-30T21:48:32.346Z,25.30
2017-10-30T21:51:02.736Z,25.30
2017-10-30T21:53:33.980Z,25.30
2017-10-30T21:56:05.138Z,25.30
2017-10-30T21:58:36.367Z,25.30
2017-10-30T22:01:06.802Z,25.20
2017-10-30T22:03:37.998Z,25.20
2017-10-30T22:06:08.567Z,25.20
2017-10-30T22:08:39.717Z,25.30
2017-10-30T22:11:10.943Z,25.30
2017-10-30T22:13:41.402Z,25.20
2017-10-30T22:16:12.549Z,25.30
2017-10-30T22:18:43.314Z,25.20
2017-10-30T22:21:13.741Z,25.30
2017-10-30T22:23:44.140Z,25.30
2017-10-30T22:26:14.541Z,25.20
2017-10-30T22:28:45.752Z,25.30
2017-10-30T22:31:17.732Z,25.20
2017-10-30T22:33:48.147Z,25.20
2017-10-30T22:36:18.941Z,25.20
2017-10-30T22:38:49.360Z,25.20
2017-10-30T22:41:20.641Z,25.30
2017-10-30T22:43:51.905Z,25.20
2017-10-30T22:46:22.355Z,25.20
2017-10-30T22:48:53.569Z,25.20
2017-10-30T22:51:23.920Z,25.20
2017-10-30T22:53:55.311Z,25.20
2017-10-30T22:56:25.760Z,25.20
2017-10-30T22:58:56.192Z,25.20
2017-10-30T23:01:26.617Z,25.10
2017-10-30T23:03:57.090Z,25.10
2017-10-30T23:06:28.532Z,25.10
2017-10-30T23:08:59.731Z,25.10
2017-10-30T23:11:30.142Z,25.10
2017-10-30T23:14:00.541Z,25.10
2017-10-30T23:16:31.740Z,25.20
2017-10-30T23:19:02.588Z,25.20
2017-10-30T23:21:33.739Z,25.30
2017-10-30T23:24:05.373Z,25.20
2017-10-30T23:26:35.729Z,25.30
2017-10-30T23:29:06.956Z,25.30
2017-10-30T23:31:37.400Z,25.30
2017-10-30T23:34:08.604Z,25.40
2017-10-30T23:36:39.599Z,25.30
2017-10-30T23:39:16.149Z,25.40
2017-10-30T23:41:46.528Z,25.40
2017-10-30T23:44:17.008Z,25.40
2017-10-30T23:46:47.434Z,25.50
2017-10-30T23:49:18.188Z,25.40
2017-10-30T23:51:49.349Z,25.50
2017-10-30T23:54:27.628Z,25.50
2017-10-30T23:56:58.811Z,25.50
2017-10-30T23:59:29.252Z,25.50
